NA07 weather

Kornkven Airstrip
Souris, North Dakota, United States

Public forecast

Using degrees Fahrenheit for public forecast. Weather courtesy of forecast.io.

METAR (pilot weather report)

Closest report is Minot Air Force Base, 38.6 nm (71.5 km) SW. Retrieved 2019/05/24 04:56 UTC (35 minutes ago):

KMIB 240456Z AUTO 15006KT 10SM CLR 08/03 A3000 RMK AO2 SLP168 T00790028 $

TAF (pilot weather forecast)

Forecast is more than 12 hours old.

Closest forecast is Minot Air Force Base, 38.6 nm (71.5 km) SW. Retrieved 2019/05/23 17:09 UTC (12 hours ago):

TAF KMIB 231700Z 2317/2423 02012KT 9999 FEW080 QNH3000INS BECMG 2406/2407 06010KT 9999 OVC030 QNH2985INS BECMG 2409/2410 04012KT 8000 -RA SCT010 BKN020 OVC030 QNH2960INS TX21/2322Z TN06/2410Z